createdAt,value
2023-05-16T00:00:00.888Z,2480.00
2023-05-16T00:01:00.903Z,2499.00
2023-05-16T00:02:01.036Z,2491.00
2023-05-16T00:03:01.043Z,2493.00
2023-05-16T00:04:01.050Z,2490.00
2023-05-16T00:05:00.955Z,2473.00
2023-05-16T00:06:00.988Z,2462.00
2023-05-16T00:07:00.978Z,2469.00
2023-05-16T00:08:01.063Z,2456.00
2023-05-16T00:09:01.035Z,2459.00
2023-05-16T00:10:01.054Z,2472.00
2023-05-16T00:11:01.117Z,2464.00
2023-05-16T00:12:01.088Z,2469.00
2023-05-16T00:13:01.120Z,2446.00
2023-05-16T00:14:01.120Z,2448.00
2023-05-16T00:15:01.140Z,2456.00
2023-05-16T00:16:01.150Z,2471.00
2023-05-16T00:17:01.222Z,2478.00
2023-05-16T00:18:01.308Z,2487.00
2023-05-16T00:19:01.476Z,2485.00
2023-05-16T00:20:01.221Z,2483.00
2023-05-16T00:21:01.236Z,2487.00
2023-05-16T00:22:01.258Z,2484.00
2023-05-16T00:23:01.481Z,2482.00
2023-05-16T00:24:01.310Z,2489.00
2023-05-16T00:25:01.318Z,2477.00
2023-05-16T00:26:01.350Z,2482.00
2023-05-16T00:27:01.351Z,2484.00
2023-05-16T00:28:01.346Z,2488.00
2023-05-16T00:29:01.372Z,2447.00
2023-05-16T00:30:01.363Z,2435.00
2023-05-16T00:31:01.376Z,2463.00
2023-05-16T00:32:01.460Z,2448.00
2023-05-16T00:33:01.483Z,2463.00
2023-05-16T00:34:01.501Z,2443.00
2023-05-16T00:35:01.440Z,2445.00
2023-05-16T00:36:01.475Z,2458.00
2023-05-16T00:37:01.471Z,2461.00
2023-05-16T00:38:01.506Z,2444.00
2023-05-16T00:39:01.527Z,2448.00
2023-05-16T00:40:01.535Z,2465.00
2023-05-16T00:41:01.557Z,2446.00
2023-05-16T00:42:01.578Z,2446.00
2023-05-16T00:43:01.577Z,2440.00
2023-05-16T00:44:01.619Z,2442.00
2023-05-16T00:45:01.602Z,2417.00
2023-05-16T00:46:01.662Z,2442.00
2023-05-16T00:47:01.671Z,2422.00
2023-05-16T00:48:01.795Z,2421.00
2023-05-16T00:49:01.700Z,2445.00
2023-05-16T00:50:01.726Z,2444.00
2023-05-16T00:51:01.733Z,2418.00
2023-05-16T00:52:01.757Z,2438.00
2023-05-16T00:53:01.800Z,2400.00
2023-05-16T00:54:01.805Z,2432.00
2023-05-16T00:55:01.798Z,2433.00
2023-05-16T00:56:01.851Z,2440.00
2023-05-16T00:57:01.884Z,2412.00
2023-05-16T00:58:01.936Z,2408.00
2023-05-16T00:59:01.919Z,2418.00
2023-05-16T01:00:01.961Z,2410.00
2023-05-16T01:01:01.944Z,2419.00
2023-05-16T01:02:02.244Z,2419.00
2023-05-16T01:03:02.058Z,2410.00
2023-05-16T01:04:02.119Z,2422.00
2023-05-16T01:05:01.980Z,2398.00
2023-05-16T01:06:02.005Z,2389.00
2023-05-16T01:07:02.076Z,2388.00
2023-05-16T01:08:02.086Z,2382.00
2023-05-16T01:09:02.042Z,2397.00
2023-05-16T01:10:02.131Z,2387.00
2023-05-16T01:11:02.116Z,2401.00
2023-05-16T01:12:02.238Z,2403.00
2023-05-16T01:13:02.184Z,2390.00
2023-05-16T01:14:02.153Z,2370.00
2023-05-16T01:15:02.184Z,2388.00
2023-05-16T01:16:02.222Z,2396.00
2023-05-16T01:17:02.209Z,2398.00
2023-05-16T01:18:02.350Z,2407.00
2023-05-16T01:19:02.272Z,2392.00
2023-05-16T01:20:02.291Z,2393.00
2023-05-16T01:21:02.276Z,2388.00
2023-05-16T01:22:02.323Z,2389.00
2023-05-16T01:23:02.328Z,2384.00
2023-05-16T01:24:02.357Z,2391.00
2023-05-16T01:25:02.384Z,2365.00
2023-05-16T01:26:02.411Z,2362.00
2023-05-16T01:27:02.383Z,2369.00
2023-05-16T01:28:02.421Z,2359.00
2023-05-16T01:29:02.460Z,2348.00
2023-05-16T01:30:02.453Z,2374.00
2023-05-16T01:31:02.577Z,2374.00
2023-05-16T01:32:02.661Z,2357.00
2023-05-16T01:33:02.518Z,2352.00
2023-05-16T01:34:02.544Z,2335.00
2023-05-16T01:35:02.576Z,2344.00
2023-05-16T01:36:02.569Z,2327.00
2023-05-16T01:37:02.599Z,2356.00
2023-05-16T01:38:02.622Z,2346.00
2023-05-16T01:39:02.633Z,2354.00
2023-05-16T01:40:02.657Z,2334.00
2023-05-16T01:41:02.653Z,2350.00
2023-05-16T01:42:02.677Z,2348.00
2023-05-16T01:43:02.687Z,2345.00
2023-05-16T01:44:02.700Z,2347.00
2023-05-16T01:45:02.716Z,2353.00
2023-05-16T01:46:02.768Z,2346.00
2023-05-16T01:47:02.882Z,2321.00
2023-05-16T01:48:02.834Z,2318.00
2023-05-16T01:49:02.809Z,2317.00
2023-05-16T01:50:02.844Z,2331.00
2023-05-16T01:51:02.854Z,2332.00
2023-05-16T01:52:02.877Z,2323.00
2023-05-16T01:53:02.910Z,2310.00
2023-05-16T01:54:02.909Z,2307.00
2023-05-16T01:55:02.937Z,2301.00
2023-05-16T01:56:02.929Z,2312.00
2023-05-16T01:57:02.987Z,2315.00
2023-05-16T01:58:03.004Z,2301.00
2023-05-16T01:59:02.985Z,2299.00
2023-05-16T02:00:03.010Z,2282.00
2023-05-16T02:01:03.082Z,2294.00
2023-05-16T02:02:03.048Z,2289.00
2023-05-16T02:03:03.155Z,2281.00
2023-05-16T02:04:03.180Z,2285.00
2023-05-16T02:05:03.114Z,2292.00
2023-05-16T02:06:03.106Z,2278.00
2023-05-16T02:07:03.126Z,2301.00
2023-05-16T02:08:03.166Z,2300.00
2023-05-16T02:09:03.136Z,2267.00
2023-05-16T02:10:03.145Z,2283.00
2023-05-16T02:11:03.202Z,2277.00
2023-05-16T02:12:03.195Z,2291.00
2023-05-16T02:13:03.208Z,2289.00
2023-05-16T02:14:03.259Z,2285.00
2023-05-16T02:15:03.268Z,2286.00
2023-05-16T02:16:03.269Z,2295.00
2023-05-16T02:17:03.380Z,2274.00
2023-05-16T02:18:03.384Z,2287.00
2023-05-16T02:19:03.366Z,2284.00
2023-05-16T02:20:03.335Z,2277.00
2023-05-16T02:21:03.340Z,2283.00
2023-05-16T02:22:03.355Z,2289.00
2023-05-16T02:23:03.409Z,2273.00
2023-05-16T02:24:03.435Z,2286.00
2023-05-16T02:25:03.428Z,2282.00
2023-05-16T02:26:03.434Z,2289.00
2023-05-16T02:27:03.443Z,2261.00
2023-05-16T02:28:03.516Z,2256.00
2023-05-16T02:29:03.513Z,2270.00
2023-05-16T02:30:03.546Z,2275.00
2023-05-16T02:31:03.579Z,2282.00
2023-05-16T02:32:03.649Z,2279.00
2023-05-16T02:33:03.646Z,2276.00
2023-05-16T02:34:03.616Z,2286.00
2023-05-16T02:35:03.625Z,2270.00
2023-05-16T02:36:03.658Z,2277.00
2023-05-16T02:37:03.697Z,2264.00
2023-05-16T02:38:03.708Z,2272.00
2023-05-16T02:39:03.742Z,2255.00
2023-05-16T02:40:03.735Z,2277.00
2023-05-16T02:41:03.757Z,2267.00
2023-05-16T02:42:03.790Z,2253.00
2023-05-16T02:43:03.794Z,2261.00
2023-05-16T02:44:03.868Z,2281.00
2023-05-16T02:45:03.857Z,2266.00
2023-05-16T02:46:03.953Z,2242.00
2023-05-16T02:47:03.906Z,2271.00
2023-05-16T02:48:03.912Z,2266.00
2023-05-16T02:49:03.948Z,2254.00
2023-05-16T02:50:03.961Z,2252.00
2023-05-16T02:51:03.954Z,2260.00
2023-05-16T02:52:04.002Z,2252.00
2023-05-16T02:53:03.993Z,2244.00
2023-05-16T02:54:04.029Z,2245.00
2023-05-16T02:55:21.147Z,2264.00
2023-05-16T02:56:05.075Z,2265.00
2023-05-16T02:57:04.030Z,2265.00
2023-05-16T02:58:04.038Z,2267.00
2023-05-16T02:59:04.043Z,2258.00
2023-05-16T03:00:04.024Z,2263.00
2023-05-16T03:01:04.006Z,2269.00
2023-05-16T03:02:04.177Z,2253.00
2023-05-16T03:03:04.053Z,2261.00
2023-05-16T03:04:04.057Z,2262.00
2023-05-16T03:05:03.973Z,2251.00
2023-05-16T03:06:03.992Z,2260.00
2023-05-16T03:07:03.982Z,2237.00
2023-05-16T03:08:03.930Z,2231.00
2023-05-16T03:09:03.971Z,2242.00
2023-05-16T03:10:03.931Z,2251.00
2023-05-16T03:11:03.906Z,2250.00
2023-05-16T03:12:04.251Z,2240.00
2023-05-16T03:13:03.904Z,2250.00
2023-05-16T03:14:03.885Z,2239.00
2023-05-16T03:15:03.880Z,2260.00
2023-05-16T03:16:03.900Z,2240.00
2023-05-16T03:17:03.861Z,2239.00
2023-05-16T03:18:03.930Z,2235.00
2023-05-16T03:19:03.886Z,2237.00
2023-05-16T03:20:03.888Z,2219.00
2023-05-16T03:21:03.932Z,2236.00
2023-05-16T03:22:04.067Z,2225.00
2023-05-16T03:23:04.014Z,2238.00
2023-05-16T03:24:04.029Z,2238.00
2023-05-16T03:25:04.034Z,2239.00
2023-05-16T03:26:04.031Z,2218.00
2023-05-16T03:27:04.056Z,2230.00
2023-05-16T03:28:04.066Z,2239.00
2023-05-16T03:29:04.093Z,2226.00
2023-05-16T03:30:04.110Z,2228.00
2023-05-16T03:31:04.160Z,2209.00
2023-05-16T03:32:04.245Z,2216.00
2023-05-16T03:33:04.252Z,2228.00
2023-05-16T03:34:04.175Z,2221.00
2023-05-16T03:35:04.206Z,2206.00
2023-05-16T03:36:04.229Z,2222.00
2023-05-16T03:37:04.258Z,2219.00
2023-05-16T03:38:04.276Z,2212.00
2023-05-16T03:39:04.297Z,2209.00
2023-05-16T03:40:04.297Z,2203.00
2023-05-16T03:41:04.348Z,2208.00
2023-05-16T03:42:04.354Z,2204.00
2023-05-16T03:43:04.392Z,2192.00
2023-05-16T03:44:04.404Z,2202.00
2023-05-16T03:45:04.409Z,2206.00
2023-05-16T03:46:04.505Z,2214.00
2023-05-16T03:47:04.447Z,2199.00
2023-05-16T03:48:04.526Z,2206.00
2023-05-16T03:49:04.508Z,2209.00
2023-05-16T03:50:04.607Z,2207.00
2023-05-16T03:51:04.553Z,2195.00
2023-05-16T03:52:04.556Z,2206.00
2023-05-16T03:53:04.591Z,2197.00
2023-05-16T03:54:04.606Z,2225.00
2023-05-16T03:55:04.626Z,2215.00
2023-05-16T03:56:04.635Z,2211.00
2023-05-16T03:57:04.684Z,2202.00
2023-05-16T03:58:04.680Z,2194.00
2023-05-16T03:59:04.742Z,2190.00
2023-05-16T04:00:04.737Z,2190.00
2023-05-16T04:01:04.800Z,2198.00
2023-05-16T04:02:04.787Z,2191.00
2023-05-16T04:03:04.858Z,2185.00
2023-05-16T04:04:04.845Z,2189.00
2023-05-16T04:05:04.874Z,2198.00
2023-05-16T04:06:04.928Z,2197.00
2023-05-16T04:07:04.896Z,2191.00
2023-05-16T04:08:04.921Z,2190.00
2023-05-16T04:09:05.036Z,2187.00
2023-05-16T04:10:05.015Z,2186.00
2023-05-16T04:11:04.962Z,2178.00
2023-05-16T04:12:04.997Z,2187.00
2023-05-16T04:13:05.018Z,2173.00
2023-05-16T04:14:05.115Z,2176.00
2023-05-16T04:15:05.070Z,2156.00
2023-05-16T04:16:05.846Z,2168.00
2023-05-16T04:17:05.207Z,2173.00
2023-05-16T04:18:05.270Z,2164.00
2023-05-16T04:19:05.245Z,2170.00
2023-05-16T04:20:05.192Z,2159.00
2023-05-16T04:21:05.225Z,2167.00
2023-05-16T04:22:05.214Z,2166.00
2023-05-16T04:23:05.217Z,2152.00
2023-05-16T04:24:05.261Z,2164.00
2023-05-16T04:25:05.257Z,2168.00
2023-05-16T04:26:05.296Z,2168.00
2023-05-16T04:27:05.357Z,2157.00
2023-05-16T04:28:05.358Z,2172.00
2023-05-16T04:29:05.363Z,2167.00
2023-05-16T04:30:05.386Z,2180.00
2023-05-16T04:31:05.455Z,2150.00
2023-05-16T04:32:05.502Z,2153.00
2023-05-16T04:33:05.532Z,2162.00
2023-05-16T04:34:05.468Z,2163.00
2023-05-16T04:35:05.496Z,2150.00
2023-05-16T04:36:05.504Z,2143.00
2023-05-16T04:37:05.493Z,2156.00
2023-05-16T04:38:05.542Z,2149.00
2023-05-16T04:39:05.543Z,2143.00
2023-05-16T04:40:05.571Z,2134.00
2023-05-16T04:41:05.577Z,2139.00
2023-05-16T04:42:05.600Z,2137.00
2023-05-16T04:43:05.607Z,2121.00
2023-05-16T04:44:05.637Z,2124.00
2023-05-16T04:45:05.655Z,2124.00
2023-05-16T04:46:05.691Z,2118.00
2023-05-16T04:47:05.706Z,2123.00
2023-05-16T04:48:05.730Z,2104.00
2023-05-16T04:49:05.700Z,2106.00
2023-05-16T04:50:05.740Z,2092.00
2023-05-16T04:51:05.779Z,2126.00
2023-05-16T04:52:05.804Z,2083.00
2023-05-16T04:53:05.819Z,2043.00
2023-05-16T04:54:05.896Z,2023.00
2023-05-16T04:55:05.836Z,2016.00
2023-05-16T04:56:05.835Z,2012.00
2023-05-16T04:57:05.869Z,2003.00
2023-05-16T04:58:05.861Z,1998.00
2023-05-16T04:59:05.889Z,1996.00
2023-05-16T05:00:05.891Z,2001.00
2023-05-16T05:02:24.861Z,500.00
2023-05-16T05:03:24.788Z,500.00
2023-05-16T05:04:24.841Z,500.00
2023-05-16T05:05:24.804Z,500.00
2023-05-16T05:06:24.782Z,500.00
2023-05-16T05:07:24.785Z,501.00
2023-05-16T05:08:24.756Z,503.00
2023-05-16T05:09:24.770Z,510.00
2023-05-16T05:10:24.739Z,502.00
2023-05-16T05:11:24.737Z,500.00
2023-05-16T05:12:24.719Z,501.00
2023-05-16T05:13:24.772Z,503.00
2023-05-16T05:14:24.725Z,504.00
2023-05-16T05:15:24.955Z,503.00
2023-05-16T05:16:24.697Z,503.00
2023-05-16T05:17:24.789Z,502.00
2023-05-16T05:18:24.702Z,505.00
2023-05-16T05:19:24.745Z,502.00
2023-05-16T05:20:24.679Z,504.00
2023-05-16T05:21:24.673Z,504.00
2023-05-16T05:22:24.683Z,504.00
2023-05-16T05:23:24.654Z,505.00
2023-05-16T05:24:24.709Z,511.00
2023-05-16T05:25:24.730Z,505.00
2023-05-16T05:26:24.645Z,511.00
2023-05-16T05:27:24.625Z,501.00
2023-05-16T05:28:24.618Z,507.00
2023-05-16T05:29:24.613Z,504.00
2023-05-16T05:30:24.641Z,507.00
2023-05-16T05:31:24.776Z,511.00
2023-05-16T05:32:24.669Z,514.00
2023-05-16T05:33:24.624Z,545.00
2023-05-16T05:34:25.011Z,577.00
2023-05-16T05:35:24.778Z,580.00
2023-05-16T05:36:24.563Z,593.00
2023-05-16T05:37:24.590Z,592.00
2023-05-16T05:38:24.564Z,610.00
2023-05-16T05:39:24.556Z,607.00
2023-05-16T05:40:24.540Z,626.00
2023-05-16T05:41:24.542Z,658.00
2023-05-16T05:42:24.544Z,665.00
2023-05-16T05:43:24.540Z,671.00
2023-05-16T05:44:24.978Z,741.00
2023-05-16T05:45:24.523Z,783.00
2023-05-16T05:46:31.666Z,835.00
2023-05-16T05:47:24.532Z,836.00
2023-05-16T05:48:24.470Z,840.00
2023-05-16T05:49:24.564Z,860.00
2023-05-16T05:50:24.488Z,887.00
2023-05-16T05:51:24.451Z,943.00
2023-05-16T05:52:24.464Z,954.00
2023-05-16T05:53:24.515Z,983.00
2023-05-16T05:54:24.441Z,1002.00
2023-05-16T05:55:24.457Z,1017.00
2023-05-16T05:56:24.403Z,996.00
2023-05-16T05:57:24.435Z,1010.00
2023-05-16T05:58:24.402Z,1006.00
2023-05-16T05:59:24.476Z,1007.00
2023-05-16T06:00:24.413Z,1058.00
2023-05-16T06:01:24.418Z,1043.00
2023-05-16T06:02:24.424Z,1059.00
2023-05-16T06:03:24.399Z,1044.00
2023-05-16T06:04:24.416Z,1035.00
2023-05-16T06:05:24.436Z,1039.00
2023-05-16T06:06:24.388Z,1034.00
2023-05-16T06:07:24.349Z,1045.00
2023-05-16T06:08:24.338Z,1042.00
2023-05-16T06:09:24.334Z,1063.00
2023-05-16T06:10:24.344Z,1051.00
2023-05-16T06:11:24.338Z,1041.00
2023-05-16T06:12:24.335Z,1057.00
2023-05-16T06:13:24.290Z,1067.00
2023-05-16T06:14:24.314Z,1060.00
2023-05-16T06:15:24.389Z,1050.00
2023-05-16T06:16:24.343Z,1054.00
2023-05-16T06:17:24.359Z,1042.00
2023-05-16T06:18:24.287Z,1046.00
2023-05-16T06:19:24.341Z,1050.00
2023-05-16T06:20:24.256Z,1041.00
2023-05-16T06:21:24.248Z,1060.00
2023-05-16T06:22:24.259Z,1049.00
2023-05-16T06:23:24.268Z,1047.00
2023-05-16T06:24:24.238Z,1049.00
2023-05-16T06:25:24.310Z,1042.00
2023-05-16T06:26:24.318Z,1046.00
2023-05-16T06:27:24.357Z,1043.00
2023-05-16T06:28:24.440Z,1048.00
2023-05-16T06:29:24.489Z,1055.00
2023-05-16T06:30:24.591Z,1062.00
2023-05-16T06:31:24.661Z,1044.00
2023-05-16T06:32:24.637Z,1067.00
2023-05-16T06:33:24.679Z,1074.00
2023-05-16T06:34:24.704Z,1085.00
2023-05-16T06:35:24.781Z,1110.00
2023-05-16T06:36:24.817Z,1132.00
2023-05-16T06:37:24.892Z,1136.00
2023-05-16T06:38:24.919Z,1156.00
2023-05-16T06:39:25.000Z,1182.00
2023-05-16T06:40:25.037Z,1178.00
2023-05-16T06:41:25.102Z,1190.00
2023-05-16T06:42:25.224Z,1169.00
2023-05-16T06:43:25.229Z,1180.00
2023-05-16T06:44:25.299Z,1176.00
2023-05-16T06:45:25.754Z,1179.00
2023-05-16T06:46:25.484Z,1180.00
2023-05-16T06:47:25.511Z,1179.00
2023-05-16T06:48:25.610Z,1159.00
2023-05-16T06:49:25.600Z,1151.00
2023-05-16T06:50:25.669Z,1166.00
2023-05-16T06:51:25.689Z,1139.00
2023-05-16T06:52:25.785Z,1142.00
2023-05-16T06:53:25.874Z,1123.00
2023-05-16T06:54:25.902Z,1121.00
2023-05-16T06:55:26.069Z,1093.00
2023-05-16T06:56:25.963Z,1080.00
2023-05-16T06:57:26.237Z,1086.00
2023-05-16T06:58:26.052Z,1082.00
2023-05-16T06:59:28.070Z,1065.00
2023-05-16T07:00:26.566Z,1060.00
2023-05-16T07:01:26.266Z,1066.00
2023-05-16T07:02:26.361Z,1056.00
2023-05-16T07:03:26.511Z,1045.00
2023-05-16T07:04:26.262Z,1049.00
2023-05-16T07:05:26.816Z,1038.00
2023-05-16T07:06:26.380Z,1042.00
2023-05-16T07:07:26.587Z,1043.00
2023-05-16T07:08:26.564Z,1039.00
2023-05-16T07:09:26.562Z,1012.00
2023-05-16T07:10:27.095Z,1016.00
2023-05-16T07:11:26.614Z,1009.00
2023-05-16T07:12:26.725Z,1009.00
2023-05-16T07:13:26.794Z,1000.00
2023-05-16T07:14:26.817Z,1012.00
2023-05-16T07:15:27.314Z,998.00
2023-05-16T07:16:26.993Z,1009.00
2023-05-16T07:17:27.021Z,1016.00
2023-05-16T07:18:27.008Z,1007.00
2023-05-16T07:19:27.236Z,1013.00
2023-05-16T07:20:27.137Z,1007.00
2023-05-16T07:21:27.237Z,1010.00
2023-05-16T07:22:27.168Z,1010.00
2023-05-16T07:23:27.244Z,1013.00
2023-05-16T07:24:27.270Z,1014.00
2023-05-16T07:25:27.793Z,1037.00
2023-05-16T07:26:27.405Z,1064.00
2023-05-16T07:27:27.756Z,1067.00
2023-05-16T07:28:27.518Z,1028.00
2023-05-16T07:29:27.556Z,964.00
2023-05-16T07:30:28.096Z,962.00
2023-05-16T07:31:27.662Z,996.00
2023-05-16T07:32:27.690Z,1007.00
2023-05-16T07:33:27.704Z,1066.00
2023-05-16T07:34:27.731Z,1086.00
2023-05-16T07:35:28.218Z,1085.00
2023-05-16T07:36:27.806Z,1111.00
2023-05-16T07:37:28.131Z,1113.00
2023-05-16T07:38:27.815Z,1162.00
2023-05-16T07:39:27.831Z,1177.00
2023-05-16T07:40:27.866Z,1192.00
2023-05-16T07:41:27.837Z,1223.00
2023-05-16T07:42:27.861Z,1243.00
2023-05-16T07:43:28.436Z,1247.00
2023-05-16T07:44:28.088Z,1264.00
2023-05-16T07:45:28.296Z,1283.00
2023-05-16T07:46:28.117Z,1302.00
2023-05-16T07:47:28.125Z,1309.00
2023-05-16T07:48:28.134Z,1297.00
2023-05-16T07:49:28.140Z,1333.00
2023-05-16T07:50:28.181Z,1373.00
2023-05-16T07:51:28.148Z,1374.00
2023-05-16T07:52:28.235Z,1389.00
2023-05-16T07:53:28.214Z,1406.00
2023-05-16T07:54:28.243Z,1145.00
2023-05-16T07:55:28.443Z,1016.00
2023-05-16T07:56:28.284Z,944.00
2023-05-16T07:57:28.293Z,908.00
2023-05-16T07:58:28.381Z,880.00
2023-05-16T07:59:28.452Z,834.00
2023-05-16T08:00:28.552Z,785.00
2023-05-16T08:01:28.575Z,723.00
2023-05-16T08:02:28.511Z,691.00
2023-05-16T08:03:28.631Z,773.00
2023-05-16T08:04:28.655Z,876.00
2023-05-16T08:05:28.810Z,935.00
2023-05-16T08:06:28.560Z,964.00
2023-05-16T08:07:28.601Z,995.00
2023-05-16T08:08:28.639Z,1043.00
2023-05-16T08:09:28.688Z,1064.00
2023-05-16T08:10:28.719Z,1066.00
2023-05-16T08:11:28.690Z,1065.00
2023-05-16T08:12:28.726Z,1074.00
2023-05-16T08:13:28.779Z,1068.00
2023-05-16T08:14:28.718Z,1070.00
2023-05-16T08:15:29.157Z,1070.00
2023-05-16T08:16:28.771Z,1078.00
2023-05-16T08:17:28.788Z,1066.00
2023-05-16T08:18:28.738Z,1054.00
2023-05-16T08:19:28.940Z,1061.00
2023-05-16T08:20:29.246Z,1056.00
2023-05-16T08:21:29.016Z,1056.00
2023-05-16T08:22:28.907Z,1053.00
2023-05-16T08:23:28.955Z,1048.00
2023-05-16T08:24:28.993Z,782.00
2023-05-16T08:25:29.259Z,858.00
2023-05-16T08:26:29.075Z,942.00
2023-05-16T08:27:29.176Z,951.00
2023-05-16T08:28:29.213Z,946.00
2023-05-16T08:29:29.215Z,950.00
2023-05-16T08:30:29.283Z,968.00
2023-05-16T08:31:29.362Z,1004.00
2023-05-16T08:32:29.359Z,1014.00
2023-05-16T08:33:29.369Z,1059.00
2023-05-16T08:34:29.560Z,1081.00
2023-05-16T08:35:29.543Z,1102.00
2023-05-16T08:36:29.621Z,1112.00
2023-05-16T08:37:29.520Z,1130.00
2023-05-16T08:38:29.583Z,1113.00
2023-05-16T08:39:29.559Z,1146.00
2023-05-16T08:40:29.582Z,1151.00
2023-05-16T08:41:30.085Z,1150.00
2023-05-16T08:42:29.667Z,1171.00
2023-05-16T08:43:29.759Z,1142.00
2023-05-16T08:44:29.812Z,1160.00
2023-05-16T08:45:30.053Z,1179.00
2023-05-16T08:46:29.921Z,1170.00
2023-05-16T08:47:30.017Z,1165.00
2023-05-16T08:48:29.962Z,964.00
2023-05-16T08:49:30.095Z,681.00
2023-05-16T08:50:30.033Z,610.00
2023-05-16T08:51:30.150Z,575.00
2023-05-16T08:52:30.189Z,581.00
2023-05-16T08:53:30.178Z,582.00
2023-05-16T08:54:30.286Z,583.00
2023-05-16T08:55:30.420Z,589.00
2023-05-16T08:56:30.604Z,603.00
2023-05-16T08:57:30.373Z,646.00
2023-05-16T08:58:30.383Z,710.00
2023-05-16T08:59:30.437Z,771.00
2023-05-16T09:00:30.523Z,850.00
2023-05-16T09:01:30.699Z,733.00
2023-05-16T09:02:30.501Z,646.00
2023-05-16T09:03:30.515Z,779.00
2023-05-16T09:04:30.561Z,843.00
2023-05-16T09:05:30.519Z,843.00
2023-05-16T09:06:30.648Z,821.00
2023-05-16T09:07:30.520Z,823.00
2023-05-16T09:08:30.620Z,858.00
2023-05-16T09:09:31.508Z,874.00
2023-05-16T09:10:30.673Z,902.00
2023-05-16T09:11:30.714Z,923.00
2023-05-16T09:12:30.730Z,932.00
2023-05-16T09:13:30.747Z,960.00
2023-05-16T09:14:30.862Z,992.00
2023-05-16T09:15:30.766Z,1008.00
2023-05-16T09:16:30.823Z,1044.00
2023-05-16T09:17:39.002Z,1077.00
2023-05-16T09:18:31.846Z,1078.00
2023-05-16T09:19:30.911Z,1082.00
2023-05-16T09:20:30.761Z,1098.00
2023-05-16T09:21:31.252Z,1125.00
2023-05-16T09:22:30.742Z,1177.00
2023-05-16T09:23:30.702Z,1182.00
2023-05-16T09:24:30.983Z,1204.00
2023-05-16T09:25:31.764Z,1220.00
2023-05-16T09:26:31.606Z,1230.00
2023-05-16T09:27:30.724Z,1237.00
2023-05-16T09:28:30.792Z,1253.00
2023-05-16T09:29:30.818Z,1282.00
2023-05-16T09:30:31.232Z,1281.00
2023-05-16T09:31:31.312Z,1303.00
2023-05-16T09:32:30.961Z,1323.00
2023-05-16T09:33:30.960Z,1325.00
2023-05-16T09:34:30.999Z,1344.00
2023-05-16T09:35:44.030Z,1358.00
2023-05-16T09:36:32.095Z,1360.00
2023-05-16T09:37:31.069Z,1363.00
2023-05-16T09:38:31.072Z,1370.00
2023-05-16T09:39:31.047Z,1388.00
2023-05-16T09:40:31.025Z,1406.00
2023-05-16T09:41:31.147Z,1370.00
2023-05-16T09:42:31.026Z,1339.00
2023-05-16T09:43:31.080Z,1325.00
2023-05-16T09:44:30.967Z,1318.00
2023-05-16T09:45:31.036Z,1302.00
2023-05-16T09:46:31.059Z,1207.00
2023-05-16T09:47:31.032Z,1235.00
2023-05-16T09:48:30.970Z,1216.00
2023-05-16T09:49:30.990Z,1196.00
2023-05-16T09:50:30.940Z,1235.00
2023-05-16T09:51:30.950Z,1239.00
2023-05-16T09:52:30.952Z,1242.00
2023-05-16T09:53:31.007Z,1231.00
2023-05-16T09:54:30.996Z,1212.00
2023-05-16T09:55:31.029Z,1179.00
2023-05-16T09:56:31.091Z,1160.00
2023-05-16T09:57:31.055Z,1173.00
2023-05-16T09:58:31.114Z,1145.00
2023-05-16T09:59:31.102Z,1131.00
2023-05-16T10:00:31.186Z,1110.00
2023-05-16T10:01:31.154Z,1104.00
2023-05-16T10:02:31.287Z,1099.00
2023-05-16T10:03:31.256Z,1106.00
2023-05-16T10:04:31.493Z,1118.00
2023-05-16T10:05:31.310Z,1118.00
2023-05-16T10:06:31.312Z,1115.00
2023-05-16T10:07:31.376Z,1103.00
2023-05-16T10:08:31.366Z,1095.00
2023-05-16T10:09:31.448Z,1095.00
2023-05-16T10:10:31.460Z,1092.00
2023-05-16T10:11:31.497Z,1089.00
2023-05-16T10:12:31.529Z,1086.00
2023-05-16T10:13:31.540Z,1094.00
2023-05-16T10:14:31.567Z,1078.00
2023-05-16T10:15:31.748Z,1072.00
2023-05-16T10:16:31.727Z,1070.00
2023-05-16T10:17:31.721Z,1074.00
2023-05-16T10:18:31.898Z,1066.00
2023-05-16T10:19:31.789Z,1058.00
2023-05-16T10:20:31.856Z,1064.00
2023-05-16T10:21:31.872Z,1060.00
2023-05-16T10:22:32.144Z,1060.00
2023-05-16T10:23:31.955Z,1056.00
2023-05-16T10:24:32.027Z,1056.00
2023-05-16T10:25:32.638Z,1059.00
2023-05-16T10:26:32.116Z,1061.00
2023-05-16T10:27:32.230Z,1057.00
2023-05-16T10:28:32.192Z,1038.00
2023-05-16T10:29:39.950Z,1042.00
2023-05-16T10:30:33.284Z,1044.00
2023-05-16T10:31:32.734Z,1045.00
2023-05-16T10:32:32.223Z,1045.00
2023-05-16T10:33:32.178Z,1045.00
2023-05-16T10:34:32.228Z,1033.00
2023-05-16T10:35:32.178Z,951.00
2023-05-16T10:36:32.179Z,663.00
2023-05-16T10:37:32.811Z,548.00
2023-05-16T10:38:32.141Z,524.00
2023-05-16T10:39:32.206Z,547.00
2023-05-16T10:40:32.173Z,551.00
2023-05-16T10:41:32.227Z,542.00
2023-05-16T10:42:32.230Z,583.00
2023-05-16T10:43:32.308Z,636.00
2023-05-16T10:44:32.261Z,686.00
2023-05-16T10:45:32.538Z,757.00
2023-05-16T10:46:32.710Z,791.00
2023-05-16T10:47:32.314Z,840.00
2023-05-16T10:48:32.457Z,896.00
2023-05-16T10:49:32.426Z,928.00
2023-05-16T10:50:32.505Z,965.00
2023-05-16T10:51:33.465Z,994.00
2023-05-16T10:52:32.527Z,1004.00
2023-05-16T10:53:32.505Z,1039.00
2023-05-16T10:54:34.099Z,1008.00
2023-05-16T10:55:32.541Z,1051.00
2023-05-16T10:56:32.584Z,1034.00
2023-05-16T10:57:33.158Z,1081.00
2023-05-16T10:58:32.746Z,1092.00
2023-05-16T10:59:32.785Z,1060.00
2023-05-16T11:00:32.868Z,1061.00
2023-05-16T11:01:32.880Z,980.00
2023-05-16T11:02:33.077Z,1076.00
2023-05-16T11:03:33.059Z,1078.00
2023-05-16T11:04:33.028Z,1041.00
2023-05-16T11:05:33.092Z,1047.00
2023-05-16T11:06:33.148Z,1042.00
2023-05-16T11:07:33.221Z,1046.00
2023-05-16T11:08:33.448Z,1038.00
2023-05-16T11:09:33.334Z,990.00
2023-05-16T11:10:33.381Z,787.00
2023-05-16T11:11:33.435Z,700.00
2023-05-16T11:12:33.511Z,675.00
2023-05-16T11:13:33.596Z,603.00
2023-05-16T11:14:33.622Z,593.00
2023-05-16T11:15:33.679Z,599.00
2023-05-16T11:16:33.732Z,565.00
2023-05-16T11:17:34.645Z,550.00
2023-05-16T11:18:33.960Z,516.00
2023-05-16T11:19:33.827Z,509.00
2023-05-16T11:20:33.939Z,500.00
2023-05-16T11:21:34.167Z,504.00
2023-05-16T11:22:34.032Z,516.00
2023-05-16T11:23:33.894Z,547.00
2023-05-16T11:24:33.884Z,547.00
2023-05-16T11:25:33.871Z,553.00
2023-05-16T11:26:33.876Z,546.00
2023-05-16T11:27:34.173Z,527.00
2023-05-16T11:28:33.864Z,551.00
2023-05-16T11:29:33.870Z,566.00
2023-05-16T11:30:33.876Z,607.00
2023-05-16T11:31:33.934Z,640.00
2023-05-16T11:32:34.229Z,658.00
2023-05-16T11:33:33.909Z,679.00
2023-05-16T11:34:33.923Z,696.00
2023-05-16T11:35:33.869Z,729.00
2023-05-16T11:36:33.863Z,688.00
2023-05-16T11:37:34.189Z,670.00
2023-05-16T11:38:33.901Z,658.00
2023-05-16T11:39:33.969Z,622.00
2023-05-16T11:40:33.890Z,566.00
2023-05-16T11:41:33.900Z,538.00
2023-05-16T11:42:34.640Z,539.00
2023-05-16T11:43:33.880Z,596.00
2023-05-16T11:44:33.885Z,611.00
2023-05-16T11:45:33.908Z,612.00
2023-05-16T11:46:33.937Z,627.00
2023-05-16T11:47:33.917Z,650.00
2023-05-16T11:48:36.681Z,664.00
2023-05-16T11:49:33.917Z,704.00
2023-05-16T11:50:33.872Z,743.00
2023-05-16T11:51:33.877Z,744.00
2023-05-16T11:52:33.949Z,726.00
2023-05-16T11:53:34.661Z,753.00
2023-05-16T11:54:33.865Z,767.00
2023-05-16T11:55:41.925Z,768.00
2023-05-16T11:56:34.892Z,769.00
2023-05-16T11:57:33.843Z,768.00
2023-05-16T11:58:33.886Z,773.00
2023-05-16T11:59:33.814Z,771.00
2023-05-16T12:00:33.850Z,793.00
2023-05-16T12:01:33.843Z,806.00
2023-05-16T12:02:33.866Z,790.00
2023-05-16T12:03:33.998Z,809.00
2023-05-16T12:04:33.987Z,838.00
2023-05-16T12:05:35.028Z,847.00
2023-05-16T12:06:33.944Z,745.00
2023-05-16T12:07:33.949Z,592.00
2023-05-16T12:08:33.950Z,546.00
2023-05-16T12:09:34.058Z,495.00
2023-05-16T12:10:33.957Z,501.00
2023-05-16T12:11:34.017Z,499.00
2023-05-16T12:12:34.007Z,500.00